createdAt,value
2019-02-08T00:00:25.109Z,99.90
2019-02-08T00:05:35.713Z,99.90
2019-02-08T00:08:05.649Z,99.90
2019-02-08T00:10:34.233Z,99.90
2019-02-08T00:13:03.061Z,99.90
2019-02-08T00:15:31.638Z,99.90
2019-02-08T00:18:00.179Z,99.90
2019-02-08T00:20:28.915Z,99.90
2019-02-08T00:22:57.489Z,99.90
2019-02-08T00:25:26.165Z,99.90
2019-02-08T00:27:54.768Z,99.90
2019-02-08T00:30:28.538Z,99.90
2019-02-08T00:32:57.147Z,99.90
2019-02-08T00:35:26.717Z,99.90
2019-02-08T00:37:55.509Z,99.90
2019-02-08T00:40:26.205Z,99.90
2019-02-08T00:42:56.628Z,99.90
2019-02-08T00:45:25.266Z,99.90
2019-02-08T00:47:53.806Z,99.90
2019-02-08T00:50:29.829Z,99.90
2019-02-08T00:52:58.618Z,99.90
2019-02-08T00:55:27.350Z,99.90
2019-02-08T00:57:56.281Z,99.90
2019-02-08T01:00:25.591Z,99.90
2019-02-08T01:02:54.966Z,99.90
2019-02-08T01:05:25.072Z,99.90
2019-02-08T01:07:53.788Z,99.90
2019-02-08T01:10:30.177Z,99.90
2019-02-08T01:12:59.768Z,99.90
2019-02-08T01:15:30.481Z,99.90
2019-02-08T01:17:59.391Z,99.90
2019-02-08T01:20:28.088Z,99.90
2019-02-08T01:22:56.617Z,99.90
2019-02-08T01:25:27.022Z,99.90
2019-02-08T01:27:55.733Z,99.90
2019-02-08T01:30:26.819Z,99.90
2019-02-08T01:32:55.616Z,99.90
2019-02-08T01:35:24.822Z,99.90
2019-02-08T01:37:54.517Z,99.90
2019-02-08T01:40:37.671Z,99.90
2019-02-08T01:43:07.849Z,99.90
2019-02-08T01:45:36.577Z,99.90
2019-02-08T01:48:07.460Z,99.90
2019-02-08T01:50:35.937Z,99.90
2019-02-08T01:53:04.837Z,99.90
2019-02-08T01:55:33.301Z,99.90
2019-02-08T01:58:01.946Z,99.90
2019-02-08T02:00:33.289Z,99.90
2019-02-08T02:03:02.917Z,99.90
2019-02-08T02:05:31.529Z,99.90
2019-02-08T02:08:01.341Z,99.90
2019-02-08T02:10:32.415Z,99.90
2019-02-08T02:13:01.191Z,99.90
2019-02-08T02:15:30.183Z,99.90
2019-02-08T02:17:59.313Z,99.90
2019-02-08T02:20:36.068Z,99.90
2019-02-08T02:23:05.490Z,99.90
2019-02-08T02:25:34.042Z,99.90
2019-02-08T02:28:02.947Z,99.90
2019-02-08T02:30:33.647Z,99.90
2019-02-08T02:33:02.556Z,99.90
2019-02-08T02:35:31.294Z,99.90
2019-02-08T02:37:59.995Z,99.90
2019-02-08T02:40:28.617Z,99.90
2019-02-08T02:42:57.337Z,99.90
2019-02-08T02:45:33.866Z,99.90
2019-02-08T02:48:02.489Z,99.90
2019-02-08T02:50:31.091Z,99.90
2019-02-08T02:52:59.729Z,99.90
2019-02-08T02:55:31.808Z,99.90
2019-02-08T02:58:00.442Z,99.90
2019-02-08T03:00:37.894Z,99.90
2019-02-08T03:03:07.202Z,99.90
2019-02-08T03:05:35.880Z,99.90
2019-02-08T03:08:06.876Z,99.90
2019-02-08T03:10:35.565Z,99.90
2019-02-08T03:13:04.865Z,99.90
2019-02-08T03:15:33.410Z,99.90
2019-02-08T03:18:01.985Z,99.90
2019-02-08T03:20:30.523Z,99.90
2019-02-08T03:22:59.117Z,99.90
2019-02-08T03:25:28.889Z,99.90
2019-02-08T03:27:57.690Z,99.90
2019-02-08T03:30:44.052Z,99.90
2019-02-08T03:33:12.639Z,99.90
2019-02-08T03:35:41.218Z,99.90
2019-02-08T03:38:09.950Z,99.90
2019-02-08T03:40:38.490Z,99.90
2019-02-08T03:43:08.361Z,99.90
2019-02-08T03:45:38.693Z,99.90
2019-02-08T03:48:07.595Z,99.90
2019-02-08T03:50:36.139Z,99.90
2019-02-08T03:53:05.685Z,99.90
2019-02-08T03:55:34.284Z,99.90
2019-02-08T03:58:03.118Z,99.90
2019-02-08T04:00:34.545Z,99.90
2019-02-08T04:03:03.462Z,99.90
2019-02-08T04:05:32.514Z,99.90
2019-02-08T04:08:01.066Z,99.90
2019-02-08T04:10:29.541Z,99.90
2019-02-08T04:12:58.106Z,99.90
2019-02-08T04:15:27.053Z,99.90
2019-02-08T04:17:55.690Z,99.90
2019-02-08T04:20:25.782Z,99.90
2019-02-08T04:22:55.377Z,99.90
2019-02-08T04:25:24.889Z,99.90
2019-02-08T04:27:53.903Z,99.90
2019-02-08T04:30:31.548Z,99.90
2019-02-08T04:33:01.758Z,99.90
2019-02-08T04:35:30.440Z,99.90
2019-02-08T04:37:59.234Z,99.90
2019-02-08T04:40:28.640Z,99.90
2019-02-08T04:42:57.264Z,99.90
2019-02-08T04:45:25.817Z,99.90
2019-02-08T04:47:55.178Z,99.90
2019-02-08T04:50:28.409Z,99.90
2019-02-08T04:52:57.720Z,99.90
2019-02-08T04:55:26.629Z,99.90
2019-02-08T04:57:55.210Z,99.90
2019-02-08T05:00:32.065Z,99.90
2019-02-08T05:03:00.794Z,99.90
2019-02-08T05:05:29.480Z,99.90
2019-02-08T05:07:58.204Z,99.90
2019-02-08T05:10:46.085Z,99.90
2019-02-08T05:13:15.363Z,99.90
2019-02-08T05:15:43.931Z,99.90
2019-02-08T05:18:12.498Z,99.90
2019-02-08T05:20:41.048Z,99.90
2019-02-08T05:23:09.615Z,99.90
2019-02-08T05:25:38.157Z,99.90
2019-02-08T05:28:06.723Z,99.90
2019-02-08T05:30:36.101Z,99.90
2019-02-08T05:33:05.490Z,99.90
2019-02-08T05:35:34.193Z,99.90
2019-02-08T05:38:02.734Z,99.90
2019-02-08T05:40:31.436Z,99.90
2019-02-08T05:43:00.138Z,99.90
2019-02-08T05:45:29.072Z,99.90
2019-02-08T05:47:57.616Z,99.90
2019-02-08T05:50:28.693Z,99.90
2019-02-08T05:52:57.514Z,99.90
2019-02-08T05:55:33.183Z,99.90
2019-02-08T05:58:01.765Z,99.90
2019-02-08T06:00:37.675Z,99.90
2019-02-08T06:03:07.558Z,99.90
2019-02-08T06:05:36.777Z,99.90
2019-02-08T06:08:06.562Z,99.90
2019-02-08T06:10:35.293Z,99.90
2019-02-08T06:13:04.982Z,99.90
2019-02-08T06:15:33.612Z,99.90
2019-02-08T06:18:02.153Z,99.90
2019-02-08T06:20:30.833Z,99.90
2019-02-08T06:22:59.368Z,99.90
2019-02-08T06:25:27.875Z,99.90
2019-02-08T06:27:56.417Z,99.90
2019-02-08T06:30:30.245Z,99.90
2019-02-08T06:32:58.930Z,99.90
2019-02-08T06:35:28.533Z,99.90
2019-02-08T06:37:57.139Z,99.90
2019-02-08T06:40:28.625Z,99.90
2019-02-08T06:42:57.415Z,99.90
2019-02-08T06:45:27.733Z,99.90
2019-02-08T06:47:56.531Z,99.90
2019-02-08T06:50:26.421Z,99.90
2019-02-08T06:52:55.121Z,99.90
2019-02-08T06:55:24.152Z,99.90
2019-02-08T06:57:57.781Z,99.90
2019-02-08T07:00:37.707Z,99.90
2019-02-08T07:03:24.828Z,99.90
2019-02-08T07:06:11.256Z,99.90
2019-02-08T07:08:46.991Z,99.90
2019-02-08T07:11:23.324Z,99.90
2019-02-08T07:13:56.649Z,99.90
2019-02-08T07:16:32.754Z,99.90
2019-02-08T07:19:02.975Z,99.90
2019-02-08T07:21:36.112Z,99.90
2019-02-08T07:24:24.742Z,99.90
2019-02-08T07:26:57.618Z,99.90
2019-02-08T07:29:40.145Z,99.90
2019-02-08T07:32:13.165Z,99.90
2019-02-08T07:34:58.585Z,99.90
2019-02-08T07:37:45.369Z,99.90
2019-02-08T07:40:36.610Z,99.90
2019-02-08T07:43:26.269Z,99.90
2019-02-08T07:45:59.715Z,99.90
2019-02-08T07:48:35.969Z,99.90
2019-02-08T07:51:06.885Z,99.90
2019-02-08T07:53:37.110Z,99.90
2019-02-08T07:56:10.807Z,99.90
2019-02-08T07:58:43.752Z,99.90
2019-02-08T08:01:31.091Z,99.90
2019-02-08T08:04:16.081Z,99.90
2019-02-08T08:06:55.493Z,99.90
2019-02-08T08:09:34.761Z,99.90
2019-02-08T08:12:05.056Z,99.90
2019-02-08T08:14:37.193Z,99.90
2019-02-08T08:17:14.266Z,99.90
2019-02-08T08:19:54.390Z,99.90
2019-02-08T08:22:25.037Z,99.90
2019-02-08T08:24:57.845Z,99.90
2019-02-08T08:27:34.922Z,99.90
2019-02-08T08:30:10.805Z,99.90
2019-02-08T08:32:42.454Z,99.90
2019-02-08T08:35:22.808Z,99.90
2019-02-08T08:38:23.230Z,99.90
2019-02-08T08:41:12.804Z,99.90
2019-02-08T08:43:47.534Z,99.90
2019-02-08T08:46:22.094Z,99.90
2019-02-08T08:49:02.802Z,99.90
2019-02-08T08:51:34.434Z,99.90
2019-02-08T08:54:20.685Z,99.90
2019-02-08T08:57:01.405Z,99.90
2019-02-08T08:59:41.529Z,99.90
2019-02-08T09:02:22.367Z,99.90
2019-02-08T09:04:59.854Z,99.90
2019-02-08T09:07:40.119Z,99.90
2019-02-08T09:10:26.827Z,99.90
2019-02-08T09:13:14.528Z,99.90
2019-02-08T09:15:43.205Z,99.90
2019-02-08T09:18:32.984Z,99.90
2019-02-08T09:21:26.934Z,99.90
2019-02-08T09:24:04.360Z,99.90
2019-02-08T09:26:55.732Z,99.90
2019-02-08T09:29:45.909Z,99.90
2019-02-08T09:32:20.517Z,99.90
2019-02-08T09:35:13.185Z,99.90
2019-02-08T09:37:50.485Z,99.90
2019-02-08T09:40:40.172Z,99.90
2019-02-08T09:43:24.372Z,99.90
2019-02-08T09:46:30.545Z,99.90
2019-02-08T09:49:04.854Z,99.90
2019-02-08T09:51:54.608Z,99.90
2019-02-08T09:54:34.977Z,99.90
2019-02-08T09:57:39.753Z,99.90
2019-02-08T10:00:27.528Z,99.90
2019-02-08T10:03:17.145Z,99.90
2019-02-08T10:06:03.933Z,99.90
2019-02-08T10:08:53.823Z,99.90
2019-02-08T10:12:01.885Z,99.90
2019-02-08T10:14:42.682Z,99.90
2019-02-08T10:17:48.391Z,99.90
2019-02-08T10:20:39.276Z,99.90
2019-02-08T10:23:25.916Z,99.90
2019-02-08T10:26:05.519Z,99.90
2019-02-08T10:29:07.949Z,99.90
2019-02-08T10:31:39.489Z,99.90
2019-02-08T10:34:11.430Z,99.90
2019-02-08T10:36:57.634Z,99.90
2019-02-08T10:39:55.184Z,99.90
2019-02-08T10:42:53.784Z,99.90
2019-02-08T10:45:40.447Z,99.90
2019-02-08T10:48:29.246Z,99.90
2019-02-08T10:51:12.707Z,99.90
2019-02-08T10:53:53.441Z,99.90
2019-02-08T10:56:52.198Z,99.90
2019-02-08T10:59:49.525Z,99.90
2019-02-08T11:02:30.027Z,99.90
2019-02-08T11:05:35.006Z,99.90
2019-02-08T11:08:15.653Z,99.90
2019-02-08T11:11:02.462Z,99.90
2019-02-08T11:13:58.443Z,99.90
2019-02-08T11:16:57.371Z,99.90
2019-02-08T11:19:25.520Z,99.90
2019-02-08T11:21:54.477Z,99.90
2019-02-08T11:24:23.608Z,99.90
2019-02-08T11:26:52.615Z,99.90
2019-02-08T11:29:21.221Z,99.90
2019-02-08T11:31:49.766Z,99.90
2019-02-08T11:34:18.270Z,99.90
2019-02-08T11:36:46.881Z,99.90
2019-02-08T11:39:16.839Z,99.90
2019-02-08T11:41:46.208Z,99.90
2019-02-08T11:44:15.134Z,99.90
2019-02-08T11:46:44.081Z,99.90
2019-02-08T11:49:12.620Z,99.90
2019-02-08T11:51:41.254Z,99.90
2019-02-08T11:54:09.808Z,99.90
2019-02-08T11:56:38.374Z,99.90
2019-02-08T11:59:06.977Z,99.90
2019-02-08T12:01:37.259Z,99.90
2019-02-08T12:04:06.372Z,99.90
2019-02-08T12:06:34.936Z,99.90
2019-02-08T12:09:04.956Z,99.40
2019-02-08T12:11:33.538Z,98.20
2019-02-08T12:14:02.081Z,97.90
2019-02-08T12:16:30.654Z,97.50
2019-02-08T12:18:59.155Z,96.30
2019-02-08T12:21:27.870Z,95.90
2019-02-08T12:23:56.409Z,95.00
2019-02-08T12:26:24.981Z,95.10
2019-02-08T12:28:53.526Z,95.40
2019-02-08T12:31:22.097Z,95.00
2019-02-08T12:33:50.662Z,95.70
2019-02-08T12:36:19.229Z,95.80
2019-02-08T12:38:48.025Z,95.50
2019-02-08T12:41:16.609Z,95.60
2019-02-08T12:43:45.156Z,95.60
2019-02-08T12:46:13.725Z,95.90
2019-02-08T12:48:42.271Z,95.40
2019-02-08T12:51:10.989Z,94.40
2019-02-08T12:53:39.477Z,94.50
2019-02-08T12:56:08.044Z,94.70
2019-02-08T12:58:36.585Z,94.50
2019-02-08T13:01:05.235Z,94.50
2019-02-08T13:03:34.390Z,94.60
2019-02-08T13:06:03.273Z,94.40
2019-02-08T13:08:31.820Z,94.10
2019-02-08T13:11:00.714Z,94.50
2019-02-08T13:13:29.547Z,93.50
2019-02-08T13:15:58.120Z,93.40
2019-02-08T13:18:26.730Z,93.60
2019-02-08T13:20:55.411Z,93.00
2019-02-08T13:23:23.969Z,92.40
2019-02-08T13:25:55.770Z,92.20
2019-02-08T13:28:24.324Z,92.20
2019-02-08T13:30:52.880Z,92.80
2019-02-08T13:33:21.431Z,93.00
2019-02-08T13:35:49.998Z,93.20
2019-02-08T13:38:18.533Z,92.80
2019-02-08T13:40:47.441Z,92.70
2019-02-08T13:43:15.923Z,92.60
2019-02-08T13:45:44.508Z,92.30
2019-02-08T13:48:13.131Z,92.10
2019-02-08T13:50:41.765Z,92.10
2019-02-08T13:53:10.320Z,91.50
2019-02-08T13:55:39.134Z,91.40
2019-02-08T13:58:07.808Z,90.90
2019-02-08T14:00:40.737Z,90.60
2019-02-08T14:03:09.884Z,91.30
2019-02-08T14:05:38.604Z,91.20
2019-02-08T14:08:07.517Z,91.40
2019-02-08T14:10:36.069Z,91.90
2019-02-08T14:13:05.514Z,92.30
2019-02-08T14:15:34.915Z,92.40
2019-02-08T14:18:04.929Z,92.50
2019-02-08T14:20:33.612Z,92.00
2019-02-08T14:23:02.104Z,91.90
2019-02-08T14:25:30.665Z,91.60
2019-02-08T14:27:59.526Z,91.60
2019-02-08T14:30:33.429Z,91.50
2019-02-08T14:33:01.989Z,91.70
2019-02-08T14:35:30.632Z,91.90
2019-02-08T14:38:01.059Z,92.10
2019-02-08T14:40:30.736Z,91.50
2019-02-08T14:42:59.489Z,91.30
2019-02-08T14:45:28.646Z,91.10
2019-02-08T14:47:57.437Z,91.00
2019-02-08T14:50:28.310Z,91.20
2019-02-08T14:52:57.513Z,91.20
2019-02-08T14:55:26.309Z,90.90
2019-02-08T14:57:57.681Z,91.00
2019-02-08T15:00:26.583Z,90.80
2019-02-08T15:02:55.236Z,91.00
2019-02-08T15:05:23.923Z,91.30
2019-02-08T15:07:52.605Z,90.60
2019-02-08T15:10:24.152Z,90.70
2019-02-08T15:12:52.868Z,91.30
2019-02-08T15:15:21.497Z,91.30
2019-02-08T15:17:50.065Z,91.50
2019-02-08T15:20:21.536Z,91.80
2019-02-08T15:22:50.375Z,92.20
2019-02-08T15:25:19.353Z,92.10
2019-02-08T15:27:47.996Z,92.30
2019-02-08T15:30:24.503Z,92.70
2019-02-08T15:32:53.078Z,92.50
2019-02-08T15:35:26.720Z,92.60
2019-02-08T15:37:55.362Z,92.90
2019-02-08T15:40:35.978Z,93.00
2019-02-08T15:43:05.397Z,93.30
2019-02-08T15:45:34.012Z,93.50
2019-02-08T15:48:02.592Z,93.60
2019-02-08T15:50:31.151Z,93.60
2019-02-08T15:52:59.801Z,93.80
2019-02-08T15:55:30.988Z,94.00
2019-02-08T15:57:59.560Z,94.20
2019-02-08T16:00:30.361Z,94.30
2019-02-08T16:03:00.001Z,94.70
2019-02-08T16:05:30.285Z,95.00
2019-02-08T16:07:58.947Z,95.30
2019-02-08T16:10:27.743Z,95.60
2019-02-08T16:12:56.293Z,95.80
2019-02-08T16:15:31.602Z,96.10
2019-02-08T16:18:00.240Z,96.40
2019-02-08T16:20:29.350Z,96.50
2019-02-08T16:22:59.157Z,96.70
2019-02-08T16:25:31.562Z,96.90
2019-02-08T16:28:00.192Z,97.30
2019-02-08T16:30:33.625Z,97.40
2019-02-08T16:33:02.165Z,97.80
2019-02-08T16:35:31.100Z,98.00
2019-02-08T16:37:59.639Z,98.20
2019-02-08T16:40:31.360Z,98.40
2019-02-08T16:43:00.009Z,98.60
2019-02-08T16:45:36.078Z,98.90
2019-02-08T16:48:07.685Z,99.10
2019-02-08T16:50:36.417Z,99.00
2019-02-08T16:53:07.146Z,99.10
2019-02-08T16:55:35.788Z,99.30
2019-02-08T16:58:06.474Z,99.30
2019-02-08T17:00:37.454Z,99.10
2019-02-08T17:03:08.556Z,99.50
2019-02-08T17:05:37.264Z,99.60
2019-02-08T17:08:05.968Z,99.40
2019-02-08T17:10:34.613Z,99.60
2019-02-08T17:13:03.222Z,99.50
2019-02-08T17:15:33.237Z,99.40
2019-02-08T17:18:01.710Z,99.40
2019-02-08T17:20:39.320Z,99.50
2019-02-08T17:23:08.125Z,99.70
2019-02-08T17:25:36.858Z,99.80
2019-02-08T17:28:06.244Z,99.50
2019-02-08T17:30:35.073Z,99.60
2019-02-08T17:33:03.888Z,99.90
2019-02-08T17:35:32.461Z,99.80
2019-02-08T17:38:01.007Z,99.90
2019-02-08T17:40:41.327Z,99.90
2019-02-08T17:43:10.101Z,99.80
2019-02-08T17:45:38.593Z,99.90
2019-02-08T17:48:09.657Z,99.80
2019-02-08T17:50:38.599Z,99.80
2019-02-08T17:53:07.125Z,99.80
2019-02-08T17:55:35.697Z,99.90
2019-02-08T17:58:04.587Z,99.90
2019-02-08T18:00:52.231Z,99.90
2019-02-08T18:03:20.875Z,99.90
2019-02-08T18:05:49.610Z,99.90
2019-02-08T18:08:18.229Z,99.90
2019-02-08T18:10:46.824Z,99.90
2019-02-08T18:13:16.597Z,99.90
2019-02-08T18:15:45.423Z,99.90
2019-02-08T18:18:16.025Z,99.90
2019-02-08T18:20:56.521Z,99.90
2019-02-08T18:23:25.072Z,99.90
2019-02-08T18:25:53.712Z,99.90
2019-02-08T18:28:22.327Z,99.90
2019-02-08T18:30:50.897Z,99.90
2019-02-08T18:33:19.443Z,99.90
2019-02-08T18:35:48.013Z,99.90
2019-02-08T18:38:16.549Z,99.90
2019-02-08T18:40:45.122Z,99.90
2019-02-08T18:43:13.671Z,99.90
2019-02-08T18:45:42.231Z,99.90
2019-02-08T18:48:10.772Z,99.90
2019-02-08T18:50:48.349Z,99.90
2019-02-08T18:53:16.901Z,99.90
2019-02-08T18:55:45.462Z,99.90
2019-02-08T18:58:19.010Z,99.90
2019-02-08T19:00:49.742Z,99.90
2019-02-08T19:03:18.420Z,99.90
2019-02-08T19:05:47.177Z,99.90
2019-02-08T19:08:15.748Z,99.90
2019-02-08T19:10:44.326Z,99.90
2019-02-08T19:13:12.941Z,99.90
2019-02-08T19:15:41.528Z,99.90
2019-02-08T19:18:10.508Z,99.90
2019-02-08T19:20:39.077Z,99.90
2019-02-08T19:23:08.556Z,99.90
2019-02-08T19:25:39.729Z,99.90
2019-02-08T19:28:08.836Z,99.90
2019-02-08T19:30:39.757Z,99.90
2019-02-08T19:33:09.214Z,99.90
2019-02-08T19:35:37.775Z,99.90
2019-02-08T19:38:07.760Z,99.90
2019-02-08T19:40:45.015Z,99.90
2019-02-08T19:43:13.847Z,99.90
2019-02-08T19:45:42.606Z,99.90
2019-02-08T19:48:11.802Z,99.90
2019-02-08T19:50:42.506Z,99.90
2019-02-08T19:53:11.325Z,99.90
2019-02-08T19:55:40.625Z,99.90
2019-02-08T19:58:10.143Z,99.90
2019-02-08T20:00:40.552Z,99.90
2019-02-08T20:03:09.533Z,99.90
2019-02-08T20:05:38.280Z,99.90
2019-02-08T20:08:08.468Z,99.90
2019-02-08T20:10:45.428Z,99.90
2019-02-08T20:13:14.041Z,99.90
2019-02-08T20:15:42.610Z,99.90
2019-02-08T20:18:11.339Z,99.90
2019-02-08T20:20:39.981Z,99.90
2019-02-08T20:23:08.544Z,99.90
2019-02-08T20:25:37.942Z,99.90
2019-02-08T20:28:07.129Z,99.90
2019-02-08T20:30:36.571Z,99.90
2019-02-08T20:33:05.849Z,99.90
2019-02-08T20:35:34.448Z,99.90
2019-02-08T20:38:03.519Z,99.90
2019-02-08T20:40:35.162Z,99.90
2019-02-08T20:43:23.041Z,99.90
2019-02-08T20:45:51.557Z,99.90
2019-02-08T20:48:21.848Z,99.90
2019-02-08T20:50:50.554Z,99.90
2019-02-08T20:53:19.324Z,99.90
2019-02-08T20:55:47.928Z,99.90
2019-02-08T20:58:16.708Z,99.90
2019-02-08T21:00:48.259Z,99.90
2019-02-08T21:03:18.202Z,99.90
2019-02-08T21:05:47.367Z,99.90
2019-02-08T21:08:16.581Z,99.90
2019-02-08T21:10:45.182Z,99.90
2019-02-08T21:13:14.268Z,99.90
2019-02-08T21:15:42.896Z,99.90
2019-02-08T21:18:12.082Z,99.90
2019-02-08T21:20:41.394Z,99.90
2019-02-08T21:23:10.192Z,99.90
2019-02-08T21:25:42.537Z,99.90
2019-02-08T21:28:11.168Z,99.90
2019-02-08T21:30:40.329Z,99.90
2019-02-08T21:33:11.166Z,99.90
2019-02-08T21:35:40.095Z,99.90
2019-02-08T21:38:09.490Z,99.90
2019-02-08T21:40:38.201Z,99.90
2019-02-08T21:43:07.418Z,99.90
2019-02-08T21:45:38.681Z,99.90
2019-02-08T21:48:08.789Z,99.90
2019-02-08T21:50:39.301Z,99.90
2019-02-08T21:53:07.910Z,99.90
2019-02-08T21:55:36.901Z,99.90
2019-02-08T21:58:06.784Z,99.90
2019-02-08T22:00:40.760Z,99.90
2019-02-08T22:03:09.785Z,99.90
2019-02-08T22:05:41.332Z,99.90
2019-02-08T22:08:09.968Z,99.90
2019-02-08T22:10:38.578Z,99.90
2019-02-08T22:13:07.279Z,99.90
2019-02-08T22:15:43.654Z,99.90
2019-02-08T22:18:12.200Z,99.90
2019-02-08T22:20:41.189Z,99.90
2019-02-08T22:23:09.941Z,99.90
2019-02-08T22:25:39.018Z,99.90
2019-02-08T22:28:07.908Z,99.90
2019-02-08T22:30:36.912Z,99.90
2019-02-08T22:33:09.948Z,99.90
2019-02-08T22:35:38.734Z,99.90
2019-02-08T22:38:08.921Z,99.90
2019-02-08T22:40:37.839Z,99.90
2019-02-08T22:43:06.868Z,99.90
2019-02-08T22:45:37.945Z,99.90
2019-02-08T22:48:07.151Z,99.90
2019-02-08T22:50:36.028Z,99.90
2019-02-08T22:53:05.858Z,99.90
2019-02-08T22:55:35.465Z,99.90
2019-02-08T22:58:05.392Z,99.90
2019-02-08T23:00:38.588Z,99.90
2019-02-08T23:03:12.105Z,99.90
2019-02-08T23:05:45.515Z,99.90
2019-02-08T23:08:11.680Z,99.90
2019-02-08T23:10:40.625Z,99.90
2019-02-08T23:13:09.971Z,99.90
2019-02-08T23:15:38.641Z,99.90
2019-02-08T23:18:08.887Z,99.90
2019-02-08T23:20:37.663Z,99.90
2019-02-08T23:23:06.750Z,99.90
2019-02-08T23:25:35.647Z,99.90
2019-02-08T23:28:04.527Z,99.80
2019-02-08T23:30:33.148Z,99.90
2019-02-08T23:33:01.678Z,99.90
2019-02-08T23:35:30.618Z,99.90
2019-02-08T23:37:59.253Z,99.90
2019-02-08T23:40:27.818Z,99.90
2019-02-08T23:42:56.288Z,99.90
2019-02-08T23:45:25.173Z,99.90
2019-02-08T23:47:53.719Z,99.90
2019-02-08T23:50:25.867Z,99.90
2019-02-08T23:52:54.545Z,99.90
2019-02-08T23:55:26.856Z,99.90
2019-02-08T23:57:55.414Z,99.90
